Time;durP1;ratioP1;P1;durP2;ratioP2;P2;SDS_P1;SDS_P2;PMS_P1;PMS_P2;Temp;Humidity;BMP_temperature;BMP_pressure;BME280_temperature;BME280_humidity;BME280_pressure;Samples;Min_cycle;Max_cycle;Signal;HPM_P1;HPM_P2
2023/04/12 00:00:21;;;;;;;9.77;4.95;;;;;;;;;;6177113;23;20547;-54
2023/04/12 00:02:52;;;;;;;10.82;4.82;;;;;;;;;;6178260;23;20378;-60
2023/04/12 00:05:27;;;;;;;19.63;5.68;;;;;;;;;;6176183;23;20024;-60
2023/04/12 00:07:54;;;;;;;20.40;5.60;;;;;;;;;;6177353;23;20474;-59
2023/04/12 00:10:28;;;;;;;15.90;5.75;;;;;;;;;;6177378;23;20060;-59
2023/04/12 00:12:55;;;;;;;17.42;5.95;;;;;;;;;;6176353;23;20276;-63
2023/04/12 00:15:22;;;;;;;17.35;5.85;;;;;;;;;;6176493;23;20083;-54
2023/04/12 00:17:56;;;;;;;8.00;4.22;;;;;;;;;;6176404;23;20064;-55
2023/04/12 00:20:23;;;;;;;11.00;4.15;;;;;;;;;;6176123;23;20057;-55
2023/04/12 00:22:57;;;;;;;9.20;5.10;;;;;;;;;;6176765;23;20035;-52
2023/04/12 00:25:25;;;;;;;11.95;4.25;;;;;;;;;;6176842;23;20095;-50
2023/04/12 00:27:52;;;;;;;;;;;;;;;;;;6176748;23;20021;-55
2023/04/12 00:30:25;;;;;;;13.02;4.53;;;;;;;;;;6177772;23;19916;-64
2023/04/12 00:32:52;;;;;;;15.07;5.70;;;;;;;;;;6177155;23;20027;-64
2023/04/12 00:35:26;;;;;;;12.57;4.15;;;;;;;;;;6175715;23;20608;-64
2023/04/12 00:37:53;;;;;;;8.40;5.07;;;;;;;;;;6177581;23;20091;-64
2023/04/12 00:40:27;;;;;;;18.23;5.28;;;;;;;;;;6174788;23;20028;-56
2023/04/12 00:42:55;;;;;;;14.00;4.82;;;;;;;;;;6175096;23;20028;-51
2023/04/12 00:45:22;;;;;;;11.80;5.00;;;;;;;;;;6151065;23;20091;-64
2023/04/12 00:47:56;;;;;;;15.18;4.30;;;;;;;;;;6152560;23;20446;-64
2023/04/12 00:50:24;;;;;;;11.98;3.72;;;;;;;;;;6174990;23;20036;-64
2023/04/12 00:52:58;;;;;;;15.88;4.55;;;;;;;;;;6177862;23;20029;-64
2023/04/12 00:55:25;;;;;;;13.65;5.97;;;;;;;;;;6177413;23;20021;-64
2023/04/12 00:57:52;;;;;;;12.30;4.45;;;;;;;;;;6174093;23;20025;-65
2023/04/12 01:00:26;;;;;;;8.80;4.50;;;;;;;;;;6178055;23;20131;-60
2023/04/12 01:02:53;;;;;;;15.90;5.68;;;;;;;;;;6177354;23;20096;-60
2023/04/12 01:05:28;;;;;;;16.50;5.53;;;;;;;;;;6176367;23;20024;-60
2023/04/12 01:08:00;;;;;;;13.90;4.93;;;;;;;;;;6177053;23;20025;-60
2023/04/12 01:10:49;;;;;;;20.45;5.25;;;;;;;;;;6177760;23;20035;-52
2023/04/12 01:13:19;;;;;;;16.42;5.28;;;;;;;;;;6149870;23;20358;-51
2023/04/12 01:16:16;;;;;;;16.50;5.75;;;;;;;;;;6178221;23;20820;-55
2023/04/12 01:18:49;;;;;;;19.40;5.53;;;;;;;;;;6158960;23;20059;-55
2023/04/12 01:21:41;;;;;;;14.60;4.97;;;;;;;;;;6178845;23;20021;-50
2023/04/12 01:24:18;;;;;;;15.70;5.38;;;;;;;;;;6178662;23;20131;-51
2023/04/12 01:26:56;;;;;;;17.67;6.57;;;;;;;;;;6153156;23;20032;-59
2023/04/12 01:29:30;;;;;;;24.50;7.70;;;;;;;;;;6178467;23;20052;-58
2023/04/12 01:32:11;;;;;;;31.63;7.50;;;;;;;;;;6153881;23;20095;-56
2023/04/12 01:34:38;;;;;;;29.98;7.70;;;;;;;;;;6177813;23;20028;-57
2023/04/12 01:37:12;;;;;;;23.02;6.90;;;;;;;;;;6176099;23;20099;-60
2023/04/12 01:39:40;;;;;;;24.70;7.70;;;;;;;;;;6177020;23;20052;-58
2023/04/12 01:42:07;;;;;;;32.25;8.75;;;;;;;;;;6177129;23;20021;-60
2023/04/12 01:44:41;;;;;;;29.35;7.50;;;;;;;;;;6179071;23;20025;-59
2023/04/12 01:47:08;;;;;;;13.27;5.85;;;;;;;;;;6176732;23;20439;-59
2023/04/12 01:49:53;;;;;;;29.15;7.82;;;;;;;;;;6176356;23;20017;-59
2023/04/12 01:52:20;;;;;;;;;;;;;;;;;;6179067;23;20132;-59
2023/04/12 01:54:56;;;;;;;22.52;7.38;;;;;;;;;;6178915;23;19999;-59
2023/04/12 01:57:33;;;;;;;31.20;7.82;;;;;;;;;;6179471;23;20028;-51
2023/04/12 02:00:05;;;;;;;36.72;8.63;;;;;;;;;;6178521;23;20104;-54
2023/04/12 02:02:39;;;;;;;34.20;7.85;;;;;;;;;;6177237;23;20031;-53
2023/04/12 02:05:08;;;;;;;21.58;7.32;;;;;;;;;;6178099;23;20029;-51
2023/04/12 02:07:42;;;;;;;19.75;7.45;;;;;;;;;;6177216;23;20542;-60
2023/04/12 02:10:14;;;;;;;38.42;8.93;;;;;;;;;;6177226;23;20032;-59
2023/04/12 02:12:41;;;;;;;32.53;8.68;;;;;;;;;;6178616;23;20045;-59
2023/04/12 02:15:15;;;;;;;31.13;9.13;;;;;;;;;;6176884;23;20107;-59
2023/04/12 02:17:42;;;;;;;30.95;7.50;;;;;;;;;;6175078;23;20056;-59
2023/04/12 02:20:17;;;;;;;21.98;6.78;;;;;;;;;;6176021;23;20076;-57
2023/04/12 02:22:45;;;;;;;32.38;8.13;;;;;;;;;;6177808;23;20017;-59
2023/04/12 02:25:12;;;;;;;;;;;;;;;;;;6177843;23;20119;-59
2023/04/12 02:28:00;;;;;;;33.22;8.85;;;;;;;;;;6177505;23;19928;-59
2023/04/12 02:30:34;;;;;;;48.63;9.30;;;;;;;;;;6178300;23;20025;-60
2023/04/12 02:33:08;;;;;;;19.52;7.07;;;;;;;;;;6177269;23;20025;-60
2023/04/12 02:35:36;;;;;;;45.67;8.60;;;;;;;;;;6179059;23;20103;-51
2023/04/12 02:38:06;;;;;;;69.50;9.93;;;;;;;;;;6175649;23;20021;-64
2023/04/12 02:40:41;;;;;;;18.50;5.83;;;;;;;;;;6177953;23;20029;-64
2023/04/12 02:43:08;;;;;;;50.22;8.45;;;;;;;;;;6176384;23;20215;-64
2023/04/12 02:45:35;;;;;;;340.90;17.58;;;;;;;;;;6179164;23;20032;-64
2023/04/12 02:48:09;;;;;;;371.52;19.73;;;;;;;;;;6177929;23;20482;-64
2023/04/12 02:50:37;;;;;;;55.05;7.88;;;;;;;;;;6176743;23;20071;-64
2023/04/12 02:53:11;;;;;;;129.80;9.25;;;;;;;;;;6178194;23;20045;-53
2023/04/12 02:55:39;;;;;;;258.73;14.40;;;;;;;;;;6177611;23;20029;-52
2023/04/12 02:58:06;;;;;;;71.30;8.05;;;;;;;;;;6176924;23;20091;-48
2023/04/12 03:00:42;;;;;;;69.93;8.80;;;;;;;;;;6178878;23;20104;-55
2023/04/12 03:03:09;;;;;;;24.65;8.13;;;;;;;;;;6176374;23;20035;-64
2023/04/12 03:05:46;;;;;;;31.48;8.70;;;;;;;;;;6178688;23;20478;-59
2023/04/12 03:08:13;;;;;;;507.42;22.42;;;;;;;;;;6175731;23;20100;-59
2023/04/12 03:10:40;;;;;;;;;;;;;;;;;;6176462;23;20103;-59
2023/04/12 03:13:14;;;;;;;37.33;7.93;;;;;;;;;;6177123;23;20022;-59
2023/04/12 03:15:44;;;;;;;35.58;9.13;;;;;;;;;;6150876;23;20096;-59
2023/04/12 03:18:19;;;;;;;32.50;7.45;;;;;;;;;;6176740;23;20073;-59
2023/04/12 03:20:47;;;;;;;38.50;7.80;;;;;;;;;;6152058;23;20028;-59
2023/04/12 03:23:14;;;;;;;51.55;9.30;;;;;;;;;;6150918;23;20097;-59
2023/04/12 03:25:48;;;;;;;56.80;10.45;;;;;;;;;;6177324;23;20099;-59
2023/04/12 03:28:15;;;;;;;40.78;10.77;;;;;;;;;;6177662;23;20063;-58
2023/04/12 03:30:49;;;;;;;23.40;7.43;;;;;;;;;;6178615;23;20066;-58
2023/04/12 03:33:16;;;;;;;29.23;7.65;;;;;;;;;;6177258;23;20079;-62
2023/04/12 03:35:50;;;;;;;124.60;11.98;;;;;;;;;;6178436;23;20821;-59
2023/04/12 03:38:17;;;;;;;29.50;6.57;;;;;;;;;;6175993;23;20028;-59
2023/04/12 03:40:45;;;;;;;155.15;11.15;;;;;;;;;;6176849;23;20092;-59
2023/04/12 03:43:18;;;;;;;146.57;12.55;;;;;;;;;;6176174;23;20028;-59
2023/04/12 03:45:45;;;;;;;40.90;6.00;;;;;;;;;;6177085;23;20068;-59
2023/04/12 03:48:19;;;;;;;71.20;8.25;;;;;;;;;;6176576;23;20047;-59
2023/04/12 03:50:47;;;;;;;31.88;5.65;;;;;;;;;;6177870;23;20067;-62
2023/04/12 03:53:14;;;;;;;;;;;;;;;;;;6177660;23;20025;-62
2023/04/12 03:55:48;;;;;;;42.25;6.90;;;;;;;;;;6151628;23;19916;-62
2023/04/12 03:58:17;;;;;;;191.85;8.73;;;;;;;;;;6176539;23;20096;-63
2023/04/12 04:00:52;;;;;;;220.50;10.25;;;;;;;;;;6178609;23;20032;-59
2023/04/12 04:03:21;;;;;;;141.65;9.10;;;;;;;;;;6149565;23;20024;-59
2023/04/12 04:05:49;;;;;;;100.60;7.15;;;;;;;;;;6152274;23;20021;-59
2023/04/12 04:08:23;;;;;;;35.60;4.60;;;;;;;;;;6178419;23;20017;-59
2023/04/12 04:10:50;;;;;;;13.15;4.68;;;;;;;;;;6177941;23;20478;-59
2023/04/12 04:13:24;;;;;;;25.02;5.57;;;;;;;;;;6177824;23;20103;-59
2023/04/12 04:15:58;;;;;;;18.52;4.68;;;;;;;;;;6179021;23;20021;-59
2023/04/12 04:18:34;;;;;;;13.57;4.43;;;;;;;;;;6177656;23;20032;-51
2023/04/12 04:21:02;;;;;;;32.80;5.35;;;;;;;;;;6178120;23;20021;-53
2023/04/12 04:23:37;;;;;;;19.90;4.65;;;;;;;;;;6176649;23;20176;-49
2023/04/12 04:26:12;;;;;;;21.00;5.00;;;;;;;;;;6176970;23;20332;-49
2023/04/12 04:28:53;;;;;;;136.80;13.48;;;;;;;;;;6176861;23;20057;-46
2023/04/12 04:31:26;;;;;;;110.45;9.60;;;;;;;;;;6175836;23;20029;-61
2023/04/12 04:33:54;;;;;;;44.03;5.50;;;;;;;;;;6176810;23;20032;-61
2023/04/12 04:36:21;;;;;;;43.53;4.78;;;;;;;;;;6177427;23;20025;-60
2023/04/12 04:38:56;;;;;;;80.82;8.60;;;;;;;;;;6177361;23;20021;-60
2023/04/12 04:41:23;;;;;;;19.25;4.70;;;;;;;;;;6174467;23;20108;-60
2023/04/12 04:43:59;;;;;;;17.42;5.15;;;;;;;;;;6176047;23;20110;-60
2023/04/12 04:46:29;;;;;;;72.65;7.85;;;;;;;;;;6175123;23;20107;-51
2023/04/12 04:48:57;;;;;;;46.90;5.85;;;;;;;;;;6176886;23;20053;-53
2023/04/12 04:51:31;;;;;;;28.67;5.03;;;;;;;;;;6176212;23;20095;-50
2023/04/12 04:53:58;;;;;;;18.33;4.97;;;;;;;;;;6174639;23;20029;-46
2023/04/12 04:56:32;;;;;;;35.92;7.88;;;;;;;;;;6178148;23;20092;-59
2023/04/12 04:59:01;;;;;;;8.68;3.60;;;;;;;;;;6177767;23;20064;-60
2023/04/12 05:01:28;;;;;;;10.77;4.53;;;;;;;;;;6176388;23;20031;-61
2023/04/12 05:04:02;;;;;;;15.93;4.90;;;;;;;;;;6178844;23;20060;-62
2023/04/12 05:06:30;;;;;;;;;;;;;;;;;;6176792;23;20028;-61
2023/04/12 05:09:04;;;;;;;10.63;4.13;;;;;;;;;;6174693;23;19916;-61
2023/04/12 05:11:31;;;;;;;15.65;5.18;;;;;;;;;;6176111;23;20028;-61
2023/04/12 05:13:59;;;;;;;9.20;4.10;;;;;;;;;;6177592;23;20021;-61
2023/04/12 05:16:33;;;;;;;8.95;3.80;;;;;;;;;;6176278;23;20099;-55
2023/04/12 05:19:00;;;;;;;9.63;3.28;;;;;;;;;;6176242;23;20474;-53
2023/04/12 05:21:34;;;;;;;10.18;3.88;;;;;;;;;;6177532;23;20021;-56
2023/04/12 05:24:01;;;;;;;18.45;5.50;;;;;;;;;;6178158;23;20092;-55
2023/04/12 05:26:29;;;;;;;13.77;4.70;;;;;;;;;;6177992;23;20420;-51
2023/04/12 05:29:09;;;;;;;12.27;4.97;;;;;;;;;;6176634;23;20040;-57
2023/04/12 05:31:36;;;;;;;12.27;4.68;;;;;;;;;;6177053;23;20104;-57
2023/04/12 05:34:10;;;;;;;9.23;3.67;;;;;;;;;;6178689;23;20032;-55
2023/04/12 05:36:37;;;;;;;8.00;4.00;;;;;;;;;;6177525;23;20025;-56
2023/04/12 05:39:05;;;;;;;8.32;3.70;;;;;;;;;;6176277;23;20116;-57
2023/04/12 05:41:38;;;;;;;12.70;5.13;;;;;;;;;;6178139;23;20419;-54
2023/04/12 05:44:05;;;;;;;17.25;6.00;;;;;;;;;;6177320;23;20414;-48
2023/04/12 05:46:32;;;;;;;16.45;6.65;;;;;;;;;;6176558;23;20417;-50
2023/04/12 05:49:06;;;;;;;15.23;7.18;;;;;;;;;;6178112;23;20021;-53
2023/04/12 05:51:34;;;;;;;17.70;7.47;;;;;;;;;;6176690;23;20025;-51
2023/04/12 05:54:09;;;;;;;20.38;7.72;;;;;;;;;;6176598;23;20095;-48
2023/04/12 05:56:36;;;;;;;12.38;5.68;;;;;;;;;;6176786;23;20075;-56
2023/04/12 05:59:04;;;;;;;15.57;6.35;;;;;;;;;;6176483;23;20021;-55
2023/04/12 06:01:41;;;;;;;12.02;5.53;;;;;;;;;;6176896;23;20035;-54
2023/04/12 06:04:08;;;;;;;16.27;6.47;;;;;;;;;;6180040;23;20028;-55
2023/04/12 06:06:43;;;;;;;13.27;5.63;;;;;;;;;;6178206;23;20462;-54
2023/04/12 06:09:10;;;;;;;11.45;6.53;;;;;;;;;;6178703;23;20610;-51
2023/04/12 06:11:38;;;;;;;14.18;6.70;;;;;;;;;;6179597;23;20141;-64
2023/04/12 06:14:11;;;;;;;13.55;6.38;;;;;;;;;;6179313;23;20096;-64
2023/04/12 06:16:38;;;;;;;19.27;6.60;;;;;;;;;;6176985;23;20025;-64
2023/04/12 06:19:12;;;;;;;16.08;6.45;;;;;;;;;;6179847;23;20025;-64
2023/04/12 06:21:40;;;;;;;16.45;6.15;;;;;;;;;;6151893;23;20109;-58
2023/04/12 06:24:07;;;;;;;18.45;6.05;;;;;;;;;;6179647;23;20021;-59
2023/04/12 06:26:45;;;;;;;14.07;6.13;;;;;;;;;;6178601;23;20108;-55
2023/04/12 06:29:13;;;;;;;15.00;6.78;;;;;;;;;;6177937;23;20021;-51
2023/04/12 06:31:57;;;;;;;18.48;6.40;;;;;;;;;;6179773;23;20427;-50
2023/04/12 06:34:24;;;;;;;14.25;6.03;;;;;;;;;;6178799;23;20027;-55
2023/04/12 06:37:00;;;;;;;13.18;5.85;;;;;;;;;;6178797;23;20029;-49
2023/04/12 06:39:28;;;;;;;14.07;5.38;;;;;;;;;;6178603;23;20160;-52
2023/04/12 06:41:56;;;;;;;18.10;5.75;;;;;;;;;;6179715;23;20140;-64
2023/04/12 06:44:32;;;;;;;20.77;5.70;;;;;;;;;;6178285;23;20040;-65
2023/04/12 06:46:59;;;;;;;18.92;5.43;;;;;;;;;;6178239;23;20108;-64
2023/04/12 06:49:27;;;;;;;15.68;5.15;;;;;;;;;;6179054;23;20017;-64
2023/04/12 06:52:00;;;;;;;16.63;4.60;;;;;;;;;;6178430;23;20033;-56
2023/04/12 06:54:27;;;;;;;14.57;4.35;;;;;;;;;;6179298;23;20067;-59
2023/04/12 06:57:01;;;;;;;12.85;3.97;;;;;;;;;;6177118;23;20021;-58
2023/04/12 06:59:28;;;;;;;11.38;3.30;;;;;;;;;;6176621;23;20390;-60
2023/04/12 07:02:02;;;;;;;18.20;3.65;;;;;;;;;;6176298;23;20021;-59
2023/04/12 07:04:30;;;;;;;15.82;3.30;;;;;;;;;;6178698;23;20482;-60
2023/04/12 07:06:57;;;;;;;7.05;2.88;;;;;;;;;;6175893;23;20581;-60
2023/04/12 07:09:31;;;;;;;8.23;3.15;;;;;;;;;;6178248;23;20029;-59
2023/04/12 07:11:59;;;;;;;10.35;3.00;;;;;;;;;;6178104;23;20091;-60
2023/04/12 07:14:27;;;;;;;9.00;2.63;;;;;;;;;;6177682;23;20036;-60
2023/04/12 07:17:01;;;;;;;5.57;2.50;;;;;;;;;;6177412;23;20025;-60
2023/04/12 07:19:30;;;;;;;5.95;3.10;;;;;;;;;;6177682;23;20048;-59
2023/04/12 07:22:03;;;;;;;12.27;2.80;;;;;;;;;;6177298;23;20017;-60
2023/04/12 07:24:30;;;;;;;7.50;2.40;;;;;;;;;;6152701;23;20056;-60
2023/04/12 07:26:57;;;;;;;8.73;3.25;;;;;;;;;;6177745;23;20023;-60
2023/04/12 07:29:44;;;;;;;15.27;2.50;;;;;;;;;;6177286;23;20067;-60
2023/04/12 07:32:18;;;;;;;8.30;2.75;;;;;;;;;;6177782;23;20111;-60
2023/04/12 07:34:52;;;;;;;8.50;2.20;;;;;;;;;;6178506;23;20029;-60
2023/04/12 07:37:20;;;;;;;5.22;2.00;;;;;;;;;;6178788;23;20545;-60
2023/04/12 07:39:47;;;;;;;9.63;2.60;;;;;;;;;;6178653;23;20463;-61
2023/04/12 07:42:20;;;;;;;8.00;1.70;;;;;;;;;;6178889;23;20021;-60
2023/04/12 07:44:47;;;;;;;7.25;1.98;;;;;;;;;;6178135;23;20096;-61
2023/04/12 07:47:21;;;;;;;11.98;2.13;;;;;;;;;;6177160;23;20017;-46
2023/04/12 07:49:48;;;;;;;9.18;2.25;;;;;;;;;;6177735;23;20029;-58
2023/04/12 07:52:16;;;;;;;10.07;1.70;;;;;;;;;;6178796;23;20025;-61
2023/04/12 07:54:49;;;;;;;4.82;1.60;;;;;;;;;;6177694;23;20017;-61
2023/04/12 07:57:16;;;;;;;;;;;;;;;;;;6177319;23;20676;-61
2023/04/12 07:59:50;;;;;;;6.85;1.50;;;;;;;;;;6177184;23;19946;-61
2023/04/12 08:02:23;;;;;;;7.25;1.33;;;;;;;;;;6177860;23;20099;-60
2023/04/12 08:05:00;;;;;;;11.38;2.00;;;;;;;;;;6178589;23;20027;-56
2023/04/12 08:07:28;;;;;;;8.60;2.00;;;;;;;;;;6177302;23;20080;-64
2023/04/12 08:09:55;;;;;;;8.80;1.92;;;;;;;;;;6177567;23;20108;-64
2023/04/12 08:12:29;;;;;;;3.78;1.40;;;;;;;;;;6177255;23;20079;-64
2023/04/12 08:14:56;;;;;;;8.23;2.00;;;;;;;;;;6178093;23;20240;-63
2023/04/12 08:17:30;;;;;;;7.57;1.85;;;;;;;;;;6176058;23;20109;-58
2023/04/12 08:19:58;;;;;;;8.32;1.38;;;;;;;;;;6176683;23;20028;-57
2023/04/12 08:22:25;;;;;;;6.50;2.15;;;;;;;;;;6176775;23;20561;-58
2023/04/12 08:24:58;;;;;;;10.73;2.00;;;;;;;;;;6178011;23;20458;-58
2023/04/12 08:27:25;;;;;;;4.93;1.58;;;;;;;;;;6176705;23;20031;-59
2023/04/12 08:29:53;;;;;;;10.45;1.48;;;;;;;;;;6176152;23;20021;-58
2023/04/12 08:32:26;;;;;;;7.15;1.67;;;;;;;;;;6177012;23;20060;-58
2023/04/12 08:34:54;;;;;;;8.00;1.63;;;;;;;;;;6179780;23;20099;-61
2023/04/12 08:37:28;;;;;;;7.70;2.15;;;;;;;;;;6177850;23;20021;-61
2023/04/12 08:40:03;;;;;;;10.13;1.80;;;;;;;;;;6177862;23;20105;-60
2023/04/12 08:42:37;;;;;;;11.25;2.13;;;;;;;;;;6176627;23;20100;-61
2023/04/12 08:45:05;;;;;;;;;;;;;;;;;;6178375;23;20546;-57
2023/04/12 08:47:33;;;;;;;4.85;1.73;;;;;;;;;;6175742;23;20003;-61
2023/04/12 08:50:14;;;;;;;8.50;2.08;;;;;;;;;;6176951;23;20025;-61
2023/04/12 08:52:42;;;;;;;6.75;1.52;;;;;;;;;;6177607;23;20036;-61
2023/04/12 08:55:16;;;;;;;6.97;1.70;;;;;;;;;;6177271;23;20100;-61
2023/04/12 08:57:44;;;;;;;7.40;1.85;;;;;;;;;;6176676;23;20091;-61
2023/04/12 09:00:12;;;;;;;10.77;1.83;;;;;;;;;;6150520;23;20025;-61
2023/04/12 09:02:50;;;;;;;9.23;1.95;;;;;;;;;;6178432;23;20083;-58
2023/04/12 09:05:18;;;;;;;6.60;1.58;;;;;;;;;;6176916;23;20025;-59
2023/04/12 09:07:51;;;;;;;11.50;1.67;;;;;;;;;;6178152;23;20709;-57
2023/04/12 09:10:29;;;;;;;7.88;1.63;;;;;;;;;;6177399;23;20483;-59
2023/04/12 09:13:04;;;;;;;7.88;1.80;;;;;;;;;;6177371;23;20021;-60
2023/04/12 09:15:47;;;;;;;6.78;1.55;;;;;;;;;;6177795;23;20522;-61
2023/04/12 09:18:22;;;;;;;6.38;2.25;;;;;;;;;;6175668;23;20029;-61
2023/04/12 09:20:50;;;;;;;9.80;2.10;;;;;;;;;;6176257;23;20056;-60
2023/04/12 09:23:20;;;;;;;10.88;2.08;;;;;;;;;;6176095;23;20557;-60
2023/04/12 09:25:54;;;;;;;11.82;1.60;;;;;;;;;;6176823;23;20455;-60
2023/04/12 09:28:22;;;;;;;;;;;;;;;;;;6150781;23;20453;-60
2023/04/12 09:31:03;;;;;;;9.25;1.83;;;;;;;;;;6176520;23;19920;-57
2023/04/12 09:33:37;;;;;;;12.93;2.45;;;;;;;;;;6178233;23;20021;-58
2023/04/12 09:36:16;;;;;;;8.00;2.00;;;;;;;;;;6177870;23;20025;-56
2023/04/12 09:38:58;;;;;;;12.45;1.98;;;;;;;;;;6153328;23;20025;-58
2023/04/12 09:41:32;;;;;;;8.88;2.00;;;;;;;;;;6178993;23;20035;-54
2023/04/12 09:44:06;;;;;;;10.85;2.33;;;;;;;;;;6155222;23;20100;-56
2023/04/12 09:46:50;;;;;;;9.80;1.40;;;;;;;;;;6180794;23;20017;-54
2023/04/12 09:49:18;;;;;;;7.80;2.05;;;;;;;;;;6178686;23;20025;-56
2023/04/12 09:51:51;;;;;;;6.38;1.38;;;;;;;;;;6179282;23;20053;-54
2023/04/12 09:54:18;;;;;;;11.32;2.50;;;;;;;;;;6179237;23;20060;-54
2023/04/12 09:56:46;;;;;;;7.03;1.80;;;;;;;;;;6153271;23;20068;-49
2023/04/12 09:59:22;;;;;;;9.15;1.92;;;;;;;;;;6178910;23;20390;-60
2023/04/12 10:01:50;;;;;;;10.88;1.65;;;;;;;;;;6179510;23;20071;-59
2023/04/12 10:04:23;;;;;;;10.25;2.20;;;;;;;;;;6177988;23;20025;-59
2023/04/12 10:06:51;;;;;;;;;;;;;;;;;;6177320;23;20490;-61
2023/04/12 10:09:24;;;;;;;7.25;1.70;;;;;;;;;;6178217;23;19920;-59
2023/04/12 10:11:52;;;;;;;7.60;2.08;;;;;;;;;;6178502;23;20430;-60
2023/04/12 10:14:20;;;;;;;11.70;1.73;;;;;;;;;;6178858;23;20508;-60
2023/04/12 10:16:58;;;;;;;10.60;1.90;;;;;;;;;;6179838;23;20025;-61
2023/04/12 10:19:25;;;;;;;7.97;2.05;;;;;;;;;;6177293;23;20025;-60
2023/04/12 10:22:00;;;;;;;6.07;1.52;;;;;;;;;;6178846;23;20032;-60
2023/04/12 10:24:28;;;;;;;8.68;1.98;;;;;;;;;;6178260;23;20491;-59
2023/04/12 10:27:03;;;;;;;5.57;1.67;;;;;;;;;;6177987;23;20032;-60
2023/04/12 10:29:39;;;;;;;7.72;2.10;;;;;;;;;;6178758;23;20108;-60
2023/04/12 10:32:21;;;;;;;10.48;2.15;;;;;;;;;;6179246;23;20108;-60
2023/04/12 10:34:53;;;;;;;7.05;1.88;;;;;;;;;;6178934;23;20108;-60
2023/04/12 10:37:45;;;;;;;13.95;1.90;;;;;;;;;;6178629;23;20120;-57
2023/04/12 10:40:18;;;;;;;5.70;1.92;;;;;;;;;;6179309;23;20024;-57
2023/04/12 10:43:11;;;;;;;7.50;1.80;;;;;;;;;;6178390;23;20340;-62
2023/04/12 10:45:38;;;;;;;7.25;1.58;;;;;;;;;;6178951;23;20128;-61
2023/04/12 10:48:31;;;;;;;7.68;1.77;;;;;;;;;;6177836;23;20055;-62
2023/04/12 10:51:26;;;;;;;7.55;1.90;;;;;;;;;;6179053;23;20029;-61
2023/04/12 10:54:08;;;;;;;10.48;2.17;;;;;;;;;;6178459;23;20103;-61
2023/04/12 10:56:39;;;;;;;6.45;1.80;;;;;;;;;;6177029;23;20025;-59
2023/04/12 10:59:14;;;;;;;15.85;2.45;;;;;;;;;;6179530;23;20107;-59
2023/04/12 11:02:02;;;;;;;7.82;2.00;;;;;;;;;;6177592;23;20059;-59
2023/04/12 11:04:37;;;;;;;5.00;1.73;;;;;;;;;;6177555;23;20045;-59
2023/04/12 11:07:10;;;;;;;6.50;1.55;;;;;;;;;;6178392;23;20033;-58
2023/04/12 11:09:43;;;;;;;5.63;1.40;;;;;;;;;;6177649;23;20127;-51
2023/04/12 11:12:12;;;;;;;10.63;2.13;;;;;;;;;;6177977;23;20363;-49
2023/04/12 11:14:49;;;;;;;8.48;1.60;;;;;;;;;;6177741;23;20474;-50
2023/04/12 11:17:22;;;;;;;9.40;1.90;;;;;;;;;;6179135;23;20445;-47
2023/04/12 11:19:55;;;;;;;9.90;2.08;;;;;;;;;;6178002;23;20051;-54
2023/04/12 11:22:30;;;;;;;9.95;2.15;;;;;;;;;;6176697;23;20025;-52
2023/04/12 11:24:59;;;;;;;7.97;1.58;;;;;;;;;;6153456;23;20027;-59
2023/04/12 11:27:33;;;;;;;11.75;2.00;;;;;;;;;;6177764;23;20067;-59
2023/04/12 11:30:07;;;;;;;7.30;2.00;;;;;;;;;;6176533;23;20063;-59
2023/04/12 11:32:44;;;;;;;13.32;2.78;;;;;;;;;;6177652;23;20100;-59
2023/04/12 11:35:11;;;;;;;8.98;1.73;;;;;;;;;;6178792;23;20023;-61
2023/04/12 11:37:38;;;;;;;7.57;2.03;;;;;;;;;;6179177;23;20112;-61
2023/04/12 11:40:12;;;;;;;8.93;1.95;;;;;;;;;;6177657;23;20396;-62
2023/04/12 11:42:40;;;;;;;9.15;1.63;;;;;;;;;;6178008;23;20017;-61
2023/04/12 11:45:18;;;;;;;6.97;1.55;;;;;;;;;;6178195;23;20052;-61
2023/04/12 11:47:45;;;;;;;7.60;1.88;;;;;;;;;;6177385;23;20481;-61
2023/04/12 11:50:12;;;;;;;8.25;1.95;;;;;;;;;;6177372;23;20051;-62
2023/04/12 11:52:49;;;;;;;8.75;1.90;;;;;;;;;;6178944;23;20020;-58
2023/04/12 11:55:20;;;;;;;7.88;2.13;;;;;;;;;;6177871;23;20021;-58
2023/04/12 11:57:54;;;;;;;8.93;1.40;;;;;;;;;;6177106;23;20025;-58
2023/04/12 12:00:24;;;;;;;9.05;1.95;;;;;;;;;;6177320;23;20276;-58
2023/04/12 12:02:51;;;;;;;6.90;1.63;;;;;;;;;;6173281;23;20554;-59
2023/04/12 12:05:36;;;;;;;5.05;1.23;;;;;;;;;;6178402;23;20096;-55
2023/04/12 12:08:06;;;;;;;9.23;2.15;;;;;;;;;;6178704;23;20064;-59
2023/04/12 12:10:40;;;;;;;8.73;1.60;;;;;;;;;;6177371;23;20043;-60
2023/04/12 12:13:21;;;;;;;8.88;1.52;;;;;;;;;;6178367;23;20376;-60
2023/04/12 12:15:56;;;;;;;4.97;1.23;;;;;;;;;;6178245;23;20132;-61
2023/04/12 12:18:29;;;;;;;6.93;1.08;;;;;;;;;;6177707;23;20028;-60
2023/04/12 12:21:03;;;;;;;5.30;1.75;;;;;;;;;;6176363;23;20418;-60
2023/04/12 13:26:48;;;;;;;8.95;1.90;;;;;;;;;;4790491;27;8365153;-54
2023/04/12 13:29:22;;;;;;;4.88;1.73;;;;;;;;;;5078876;28;20675;-62
2023/04/12 13:31:56;;;;;;;13.15;2.50;;;;;;;;;;5076982;28;20131;-62
2023/04/12 13:34:23;;;;;;;5.13;1.50;;;;;;;;;;5082953;28;20072;-62
2023/04/12 13:36:50;;;;;;;6.30;1.67;;;;;;;;;;5080965;28;20563;-62
2023/04/12 13:39:24;;;;;;;7.95;1.70;;;;;;;;;;5073384;28;20045;-62
2023/04/12 13:41:51;;;;;;;3.50;1.23;;;;;;;;;;5075258;28;20045;-62
2023/04/12 13:44:26;;;;;;;9.43;1.48;;;;;;;;;;5079326;28;20547;-62
2023/04/12 13:46:53;;;;;;;5.65;1.35;;;;;;;;;;5073149;28;20101;-63
2023/04/12 13:49:20;;;;;;;3.30;1.08;;;;;;;;;;5074435;28;20067;-62
2023/04/12 13:51:55;;;;;;;4.55;1.02;;;;;;;;;;5074687;28;21138;-62
2023/04/12 13:54:22;;;;;;;2.72;0.95;;;;;;;;;;5076342;28;20132;-62
2023/04/12 13:56:57;;;;;;;4.90;1.20;;;;;;;;;;5074782;28;20685;-59
2023/04/12 13:59:25;;;;;;;4.97;1.27;;;;;;;;;;5080354;28;20130;-58
2023/04/12 14:01:52;;;;;;;7.28;1.27;;;;;;;;;;5073613;28;20044;-53
2023/04/12 14:04:27;;;;;;;5.53;0.80;;;;;;;;;;5071044;28;20496;-53
2023/04/12 14:06:55;;;;;;;8.55;1.55;;;;;;;;;;5072838;28;20064;-55
2023/04/12 14:09:30;;;;;;;7.15;1.23;;;;;;;;;;5077063;28;20565;-51
2023/04/12 14:11:58;;;;;;;3.42;1.05;;;;;;;;;;5075689;28;20510;-55
2023/04/12 14:14:26;;;;;;;4.30;1.08;;;;;;;;;;5081802;28;20522;-56
2023/04/12 14:17:00;;;;;;;7.88;1.83;;;;;;;;;;5075530;28;20060;-49
2023/04/12 14:19:28;;;;;;;6.82;1.13;;;;;;;;;;5075476;28;20049;-54
2023/04/12 14:22:02;;;;;;;4.95;1.27;;;;;;;;;;5079088;28;20276;-55
2023/04/12 14:24:30;;;;;;;;;;;;;;;;;;5072167;28;20222;-54
2023/04/12 14:27:04;;;;;;;3.97;1.10;;;;;;;;;;5091309;28;19995;-60
2023/04/12 14:29:38;;;;;;;2.03;0.70;;;;;;;;;;5093871;28;20046;-53
2023/04/12 14:32:12;;;;;;;2.85;0.70;;;;;;;;;;5096146;28;20135;-47
2023/04/12 14:34:41;;;;;;;7.03;1.38;;;;;;;;;;5092257;28;20048;-47
2023/04/12 14:37:09;;;;;;;3.72;0.77;;;;;;;;;;5086042;28;20059;-46
2023/04/12 14:39:43;;;;;;;4.55;1.13;;;;;;;;;;5075673;28;20097;-47
2023/04/12 14:42:10;;;;;;;2.83;0.95;;;;;;;;;;5072557;28;20053;-49
2023/04/12 14:44:44;;;;;;;5.57;0.95;;;;;;;;;;5082670;28;20051;-60
2023/04/12 14:47:11;;;;;;;3.15;1.10;;;;;;;;;;5078108;28;20063;-60
2023/04/12 14:49:38;;;;;;;2.85;0.88;;;;;;;;;;5078325;28;20044;-61
2023/04/12 14:52:12;;;;;;;3.75;1.10;;;;;;;;;;5082115;28;20135;-61
2023/04/12 14:54:39;;;;;;;3.30;1.48;;;;;;;;;;5069153;28;20078;-61
2023/04/12 14:57:14;;;;;;;6.15;1.83;;;;;;;;;;5048094;28;20157;-54
2023/04/12 14:59:41;;;;;;;6.50;1.60;;;;;;;;;;5038708;28;20056;-51
2023/04/12 15:02:08;;;;;;;4.18;1.25;;;;;;;;;;5039106;28;20432;-53
2023/04/12 15:04:42;;;;;;;5.35;1.33;;;;;;;;;;5037770;28;20072;-51
2023/04/12 15:07:10;;;;;;;4.95;1.35;;;;;;;;;;5038365;28;20056;-52
2023/04/12 15:09:37;;;;;;;6.07;1.40;;;;;;;;;;5034664;28;20044;-52
2023/04/12 15:12:11;;;;;;;2.55;1.02;;;;;;;;;;5033580;28;20508;-52
2023/04/12 15:14:39;;;;;;;4.47;1.15;;;;;;;;;;5038731;28;20415;-60
2023/04/12 15:17:13;;;;;;;1.70;0.80;;;;;;;;;;5038584;28;20045;-50
2023/04/12 15:19:40;;;;;;;4.05;1.48;;;;;;;;;;5038703;28;20055;-49
2023/04/12 15:22:07;;;;;;;4.60;1.13;;;;;;;;;;5036995;28;20403;-52
2023/04/12 15:24:48;;;;;;;5.45;1.17;;;;;;;;;;5033631;28;20097;-51
2023/04/12 15:27:22;;;;;;;6.13;1.30;;;;;;;;;;5039336;28;20055;-53
2023/04/12 15:29:59;;;;;;;5.40;1.15;;;;;;;;;;5041239;28;20045;-50
2023/04/12 15:32:28;;;;;;;3.05;0.98;;;;;;;;;;5033430;28;20427;-51
2023/04/12 15:34:55;;;;;;;3.80;1.08;;;;;;;;;;5038028;28;20037;-60
2023/04/12 15:37:33;;;;;;;3.97;1.20;;;;;;;;;;5032389;28;20064;-60
2023/04/12 15:40:01;;;;;;;3.75;0.90;;;;;;;;;;5034371;28;20153;-60
2023/04/12 15:42:28;;;;;;;;;;;;;;;;;;5039643;28;20080;-60
2023/04/12 15:45:03;;;;;;;3.97;1.30;;;;;;;;;;5039007;28;20645;-60
2023/04/12 15:47:30;;;;;;;4.28;1.10;;;;;;;;;;5035740;28;20136;-60
2023/04/12 15:50:04;;;;;;;5.07;1.27;;;;;;;;;;5035841;28;20141;-49
2023/04/12 15:52:31;;;;;;;4.40;1.00;;;;;;;;;;5037009;28;20051;-48
2023/04/12 15:54:59;;;;;;;4.00;1.40;;;;;;;;;;5034418;28;20136;-50
2023/04/12 15:57:32;;;;;;;4.72;1.10;;;;;;;;;;5036713;28;20744;-49
2023/04/12 16:00:00;;;;;;;4.07;1.00;;;;;;;;;;5034946;28;20055;-60
2023/04/12 16:02:35;;;;;;;2.75;0.98;;;;;;;;;;5023118;28;20424;-49
2023/04/12 16:05:03;;;;;;;6.50;1.63;;;;;;;;;;5021225;28;20052;-53
2023/04/12 16:07:32;;;;;;;5.35;1.25;;;;;;;;;;5030571;28;20050;-51